Time;durP1;ratioP1;P1;durP2;ratioP2;P2;SDS_P1;SDS_P2;PMS_P1;PMS_P2;Temp;Humidity;BMP_temperature;BMP_pressure;BME280_temperature;BME280_humidity;BME280_pressure;Samples;Min_cycle;Max_cycle;Signal;HPM_P1;HPM_P2
2022/09/24 00:00:52;;;;;;;37.72;32.15;;;;;;;11.35;100.00;101146.38;2072465;28;39782;-75
2022/09/24 00:01:54;;;;;;;37.88;32.15;;;;;;;11.33;100.00;101142.88;2072224;28;29034;-75
2022/09/24 00:02:55;;;;;;;32.33;28.45;;;;;;;11.34;100.00;101144.66;2072630;28;34636;-75
2022/09/24 00:04:03;;;;;;;37.60;32.67;;;;;;;11.34;100.00;101144.66;2072042;28;31997;-75
2022/09/24 00:05:06;;;;;;;38.70;32.40;;;;;;;11.34;100.00;101146.41;2073068;28;28562;-75
2022/09/24 00:06:08;;;;;;;33.95;30.27;;;;;;;11.34;100.00;101139.28;2072078;28;40248;-75
2022/09/24 00:07:10;;;;;;;36.00;31.27;;;;;;;11.34;100.00;101141.97;2063866;28;31318;-75
2022/09/24 00:08:15;;;;;;;38.15;30.63;;;;;;;11.34;100.00;101141.97;2063741;28;30253;-75
2022/09/24 00:09:20;;;;;;;35.63;31.63;;;;;;;11.33;100.00;101142.88;2072298;28;36975;-74
2022/09/24 00:10:22;;;;;;;38.47;32.53;;;;;;;11.33;100.00;101142.88;2072139;28;33720;-75
2022/09/24 00:11:27;;;;;;;41.15;35.25;;;;;;;11.31;100.00;101142.03;2072080;28;39355;-74
2022/09/24 00:12:29;;;;;;;37.33;33.35;;;;;;;11.31;100.00;101141.16;2072349;28;33474;-75
2022/09/24 00:13:32;;;;;;;38.13;33.95;;;;;;;11.31;100.00;101138.47;2073048;28;20039;-75
2022/09/24 00:14:34;;;;;;;37.53;32.58;;;;;;;11.30;100.00;101134.88;2072205;28;31100;-76
2022/09/24 00:15:41;;;;;;;37.42;31.27;;;;;;;11.30;100.00;101134.00;2072624;28;32609;-73
2022/09/24 00:16:44;;;;;;;34.72;30.88;;;;;;;11.30;100.00;101142.94;2072098;28;38079;-76
2022/09/24 00:17:46;;;;;;;41.28;36.78;;;;;;;11.30;100.00;101137.56;2072514;28;33276;-75
2022/09/24 00:18:48;;;;;;;38.75;31.25;;;;;;;11.30;100.00;101139.38;2072878;28;30082;-76
2022/09/24 00:19:50;;;;;;;39.42;32.70;;;;;;;11.29;100.00;101135.81;2072539;28;30353;-75
2022/09/24 00:20:51;;;;;;;37.83;32.88;;;;;;;11.28;100.00;101134.91;2071424;28;37839;-75
2022/09/24 00:21:53;;;;;;;40.70;33.10;;;;;;;11.27;100.00;101132.31;2071826;28;38119;-76
2022/09/24 00:22:55;;;;;;;41.97;34.13;;;;;;;11.27;100.00;101132.31;2072400;28;33205;-76
2022/09/24 00:27:05;;;;;;;37.90;33.75;;;;;;;11.25;100.00;101132.34;2072541;28;30005;-74
2022/09/24 00:28:07;;;;;;;42.95;36.60;;;;;;;11.26;100.00;101130.53;2072481;28;29637;-73
2022/09/24 00:29:13;;;;;;;42.10;36.65;;;;;;;11.26;100.00;101128.72;2071818;28;32394;-73
2022/09/24 00:30:15;;;;;;;35.95;31.40;;;;;;;11.26;100.00;101125.16;2072537;28;37591;-74
2022/09/24 00:31:17;;;;;;;36.35;32.38;;;;;;;11.26;100.00;101130.53;2072195;28;34389;-76
2022/09/24 00:32:18;;;;;;;47.67;38.63;;;;;;;11.26;100.00;101131.41;2072470;28;29947;-75
2022/09/24 00:33:22;;;;;;;42.70;35.05;;;;;;;11.26;100.00;101131.41;2072061;28;40542;-73
2022/09/24 00:34:24;;;;;;;39.95;33.95;;;;;;;11.26;100.00;101133.19;2072239;28;37559;-75
2022/09/24 00:35:26;;;;;;;46.22;38.42;;;;;;;11.27;100.00;101137.66;2072068;28;36464;-75
2022/09/24 00:36:28;;;;;;;41.05;35.75;;;;;;;11.25;100.00;101140.38;2072549;28;35348;-75
2022/09/24 00:37:32;;;;;;;45.83;36.22;;;;;;;11.27;100.00;101134.97;2072320;28;30388;-75
2022/09/24 00:38:34;;;;;;;39.00;32.92;;;;;;;11.25;100.00;101129.66;2072169;28;37989;-75
2022/09/24 00:39:36;;;;;;;46.25;36.72;;;;;;;11.25;100.00;101129.66;2072217;28;31154;-75
2022/09/24 00:40:38;;;;;;;46.67;36.67;;;;;;;11.25;100.00;101129.66;2072219;28;31967;-76
2022/09/24 00:41:47;;;;;;;38.30;33.58;;;;;;;11.23;100.00;101128.81;2071858;28;37785;-75
2022/09/24 00:42:49;;;;;;;38.90;34.22;;;;;;;11.24;100.00;101132.34;2073526;28;20951;-74
2022/09/24 00:43:52;;;;;;;44.10;37.47;;;;;;;11.23;100.00;101131.50;2072178;28;40456;-76
2022/09/24 00:44:54;;;;;;;45.28;36.78;;;;;;;11.23;100.00;101130.59;2071757;28;32580;-74
2022/09/24 00:46:09;;;;;;;43.05;35.63;;;;;;;11.22;100.00;101134.19;2072384;28;29582;-74
2022/09/24 00:47:30;;;;;;;44.13;36.03;;;;;;;11.22;100.00;101126.16;2063650;28;29032;-75
2022/09/24 00:48:33;;;;;;;45.47;37.58;;;;;;;11.21;100.00;101124.38;2068780;28;20043;-74
2022/09/24 00:49:34;;;;;;;40.47;33.83;;;;;;;11.20;100.00;101120.81;2063077;28;37079;-74
2022/09/24 00:50:36;;;;;;;43.03;34.20;;;;;;;11.21;100.00;101132.41;2064044;28;33527;-74
2022/09/24 00:51:40;;;;;;;43.17;34.60;;;;;;;11.21;100.00;101125.25;2071848;28;29770;-74
2022/09/24 00:52:59;;;;;;;48.22;37.22;;;;;;;11.21;100.00;101127.06;2063486;28;31994;-74
2022/09/24 00:54:11;;;;;;;39.78;34.47;;;;;;;11.21;100.00;101121.69;2066256;28;40182;-73
2022/09/24 00:55:15;;;;;;;47.03;39.25;;;;;;;11.20;100.00;101119.97;2063446;28;37116;-74
2022/09/24 00:56:19;;;;;;;45.22;36.33;;;;;;;11.19;100.00;101119.06;2063314;28;36967;-76
2022/09/24 00:57:22;;;;;;;43.65;36.22;;;;;;;11.19;100.00;101123.53;2064417;28;20129;-74
2022/09/24 00:58:25;;;;;;;42.00;36.33;;;;;;;11.19;100.00;101123.53;2062976;28;34726;-75
2022/09/24 00:59:28;;;;;;;46.40;37.97;;;;;;;11.16;100.00;101124.50;2063523;28;38775;-75
2022/09/24 01:00:31;;;;;;;46.70;37.65;;;;;;;11.18;100.00;101121.75;2072127;28;31731;-76
2022/09/24 01:01:33;;;;;;;42.95;36.03;;;;;;;11.17;100.00;101120.00;2063191;28;34207;-73
2022/09/24 01:02:44;;;;;;;43.97;35.85;;;;;;;11.17;100.00;101123.56;2064441;28;20046;-74
2022/09/24 01:03:49;;;;;;;44.97;36.50;;;;;;;11.16;100.00;101120.91;2072209;28;35235;-77
2022/09/24 01:04:51;;;;;;;40.90;32.53;;;;;;;11.15;100.00;101116.50;2064052;28;32707;-74
2022/09/24 01:05:57;;;;;;;47.60;37.92;;;;;;;11.15;100.00;101116.50;2065559;28;20035;-74
2022/09/24 01:07:01;;;;;;;44.13;35.92;;;;;;;11.14;100.00;101115.59;2071064;28;38243;-75
2022/09/24 01:08:06;;;;;;;46.97;38.25;;;;;;;11.16;100.00;101115.56;2071491;28;39841;-75
2022/09/24 01:09:08;;;;;;;46.05;37.63;;;;;;;11.15;100.00;101116.50;2072074;28;36824;-74
2022/09/24 01:10:10;;;;;;;47.05;37.50;;;;;;;11.14;100.00;101112.03;2072071;28;34451;-74
2022/09/24 01:11:40;;;;;;;46.33;37.80;;;;;;;11.14;100.00;101120.06;2072042;28;34620;-75
2022/09/24 01:13:00;;;;;;;44.83;37.40;;;;;;;11.13;100.00;101113.84;2071677;28;35686;-74
2022/09/24 01:14:22;;;;;;;47.25;37.50;;;;;;;11.13;100.00;101112.97;2063452;28;32416;-74
2022/09/24 01:15:33;;;;;;;42.08;34.25;;;;;;;11.12;100.00;101109.38;2068874;28;33639;-75
2022/09/24 01:16:54;;;;;;;45.15;36.45;;;;;;;11.12;100.00;101111.19;2063108;28;38802;-74
2022/09/24 01:18:14;;;;;;;45.50;35.45;;;;;;;11.12;100.00;101105.84;2067790;28;37881;-73
2022/09/24 01:20:07;;;;;;;44.17;35.55;;;;;;;11.11;100.00;101113.00;2063202;28;34790;-75
2022/09/24 01:21:48;;;;;;;45.70;35.05;;;;;;;11.08;100.00;101103.22;2071212;28;32234;-75
2022/09/24 01:23:23;;;;;;;52.05;39.05;;;;;;;11.08;100.00;101105.91;2063573;28;20054;-75
2022/09/24 01:24:30;;;;;;;47.63;37.20;;;;;;;11.07;100.00;101104.16;2071158;28;38884;-75
2022/09/24 01:26:17;;;;;;;49.17;38.10;;;;;;;11.08;100.00;101103.22;2071446;28;30679;-75
2022/09/24 01:27:51;;;;;;;50.22;38.35;;;;;;;11.07;100.00;101103.25;2071545;28;39397;-76
2022/09/24 01:29:17;;;;;;;49.20;36.85;;;;;;;11.06;100.00;101097.00;2063678;28;20043;-75
2022/09/24 01:30:20;;;;;;;48.80;37.50;;;;;;;11.06;100.00;101097.00;2071384;28;37606;-75
2022/09/24 01:31:34;;;;;;;49.67;37.17;;;;;;;11.05;100.00;101091.69;2071316;28;41044;-76
2022/09/24 01:32:56;;;;;;;52.20;39.05;;;;;;;11.05;100.00;101089.91;2063153;28;20043;-73
2022/09/24 01:34:04;;;;;;;45.65;36.67;;;;;;;11.04;100.00;101093.50;2068463;28;35537;-75
2022/09/24 01:35:33;;;;;;;48.63;38.70;;;;;;;11.05;100.00;101097.94;2063670;28;20129;-75
2022/09/24 01:36:37;;;;;;;50.05;38.88;;;;;;;11.03;100.00;101091.72;2068124;28;37499;-74
2022/09/24 01:37:47;;;;;;;49.08;39.13;;;;;;;11.03;100.00;101083.69;2062969;28;33906;-74
2022/09/24 01:38:52;;;;;;;46.65;38.20;;;;;;;11.03;100.00;101091.72;2064741;28;39931;-75
2022/09/24 01:39:57;;;;;;;53.97;38.67;;;;;;;11.04;100.00;101087.25;2062483;28;36645;-75
2022/09/24 01:41:03;;;;;;;48.95;37.72;;;;;;;11.04;100.00;101088.13;2063620;28;40649;-73
2022/09/24 01:42:08;;;;;;;48.05;37.50;;;;;;;11.03;100.00;101086.34;2071910;28;34610;-75
2022/09/24 01:43:12;;;;;;;50.97;39.35;;;;;;;11.03;100.00;101083.69;2071983;28;31841;-73
2022/09/24 01:44:17;;;;;;;48.33;37.70;;;;;;;11.03;100.00;101086.34;2062188;28;38778;-75
2022/09/24 01:45:19;;;;;;;52.97;40.67;;;;;;;11.02;100.00;101083.75;2064096;28;35314;-76
2022/09/24 01:46:22;;;;;;;51.28;39.35;;;;;;;11.01;100.00;101081.97;2062956;28;39585;-75
2022/09/24 01:47:38;;;;;;;48.22;39.88;;;;;;;11.01;100.00;101082.84;2063201;28;34110;-76
2022/09/24 01:48:40;;;;;;;48.45;38.72;;;;;;;11.00;100.00;101086.44;2072060;28;29991;-76
2022/09/24 01:49:42;;;;;;;54.88;40.00;;;;;;;11.00;100.00;101081.09;2071361;28;35688;-75
2022/09/24 01:50:56;;;;;;;54.15;40.88;;;;;;;11.01;100.00;101081.97;2071762;28;35866;-76
2022/09/24 01:52:04;;;;;;;51.13;40.30;;;;;;;10.99;100.00;101079.31;2062721;28;36242;-76
2022/09/24 01:53:30;;;;;;;54.55;42.35;;;;;;;10.99;100.00;101082.00;2065849;28;34805;-73
2022/09/24 01:54:41;;;;;;;52.38;41.55;;;;;;;10.99;100.00;101082.00;2062986;28;32189;-74
2022/09/24 01:55:48;;;;;;;48.80;39.72;;;;;;;10.99;100.00;101076.63;2067716;28;35428;-74
2022/09/24 01:56:59;;;;;;;51.70;39.97;;;;;;;11.00;100.00;101077.50;2063127;28;38558;-74
2022/09/24 01:58:09;;;;;;;49.42;37.47;;;;;;;10.99;100.00;101071.28;2065032;28;34310;-74
2022/09/24 01:59:21;;;;;;;;;;;;;;;11.00;100.00;101070.38;2072235;28;31386;-74
2022/09/24 02:00:23;;;;;;;46.80;35.97;;;;;;;11.01;100.00;101072.13;2070905;28;36680;-74
2022/09/24 02:01:44;;;;;;;49.65;39.95;;;;;;;11.03;100.00;101074.75;2072372;28;20034;-74
2022/09/24 02:03:10;;;;;;;50.42;37.90;;;;;;;11.02;100.00;101073.03;2062751;28;38087;-74
2022/09/24 02:04:17;;;;;;;51.58;36.92;;;;;;;11.02;100.00;101067.66;2067973;28;20042;-74
2022/09/24 02:05:23;;;;;;;54.65;41.47;;;;;;;11.02;100.00;101063.19;2071055;28;41539;-74
2022/09/24 02:06:36;;;;;;;56.63;42.17;;;;;;;11.04;100.00;101060.47;2071354;28;35542;-74
2022/09/24 02:08:21;;;;;;;47.95;39.33;;;;;;;11.04;100.00;101065.81;2063021;28;36288;-74
2022/09/24 02:09:33;;;;;;;59.10;43.45;;;;;;;11.05;100.00;101056.84;2069385;28;31786;-74
2022/09/24 02:10:50;;;;;;;56.33;42.22;;;;;;;11.04;100.00;101055.09;2071605;28;33496;-74
2022/09/24 02:11:54;;;;;;;53.72;41.55;;;;;;;11.05;100.00;101060.44;2063026;28;39257;-74
2022/09/24 02:13:02;;;;;;;52.63;41.00;;;;;;;11.07;100.00;101055.91;2064811;28;35150;-74
2022/09/24 02:14:13;;;;;;;56.97;44.25;;;;;;;11.08;100.00;101056.78;2071537;28;36564;-73
2022/09/24 02:15:26;;;;;;;58.70;42.88;;;;;;;11.07;100.00;101061.28;2062537;28;40366;-73
2022/09/24 02:16:43;;;;;;;58.55;44.50;;;;;;;11.07;100.00;101053.25;2066182;28;32901;-73
2022/09/24 02:17:52;;;;;;;53.88;42.47;;;;;;;11.07;100.00;101055.00;2071741;28;36427;-74
2022/09/24 02:18:58;;;;;;;55.05;40.80;;;;;;;11.08;100.00;101060.34;2062357;28;37073;-74
2022/09/24 02:20:05;;;;;;;54.50;43.03;;;;;;;11.07;100.00;101061.28;2064787;28;40077;-73
2022/09/24 02:21:15;;;;;;;53.63;42.90;;;;;;;11.09;100.00;101058.56;2070882;28;37014;-73
2022/09/24 02:22:17;;;;;;;54.20;43.53;;;;;;;11.09;100.00;101058.56;2071665;28;36819;-73
2022/09/24 02:23:19;;;;;;;62.90;45.83;;;;;;;11.10;100.00;101060.31;2071035;28;38590;-73
2022/09/24 02:24:39;;;;;;;60.67;44.45;;;;;;;11.10;100.00;101062.13;2072640;28;38859;-73
2022/09/24 02:26:13;;;;;;;60.22;44.83;;;;;;;11.10;100.00;101056.75;2071634;28;30867;-73
2022/09/24 02:27:17;;;;;;;59.60;43.30;;;;;;;11.11;100.00;101058.50;2031255;29;20040;-73
2022/09/24 02:28:19;;;;;;;63.00;45.05;;;;;;;11.11;100.00;101054.03;2054236;28;37421;-73
2022/09/24 02:29:22;;;;;;;57.03;44.25;;;;;;;11.12;100.00;101052.25;2062623;28;37844;-73
2022/09/24 02:30:23;;;;;;;54.25;42.28;;;;;;;11.11;100.00;101055.81;2071016;28;31446;-74
2022/09/24 02:31:33;;;;;;;61.70;46.60;;;;;;;11.11;100.00;101061.19;2071190;28;38952;-73
2022/09/24 02:32:39;;;;;;;59.72;45.35;;;;;;;11.11;100.00;101056.72;2063286;28;36248;-73
2022/09/24 02:35:11;;;;;;;62.20;47.20;;;;;;;11.11;100.00;101056.72;2062896;28;40559;-73
2022/09/24 02:36:13;;;;;;;59.83;46.83;;;;;;;11.11;100.00;101055.81;2066818;28;34497;-73
2022/09/24 02:37:15;;;;;;;57.53;44.85;;;;;;;11.11;100.00;101051.38;2071483;28;34356;-73
2022/09/24 02:38:18;;;;;;;62.42;46.28;;;;;;;11.12;100.00;101049.56;2071357;28;31882;-73
2022/09/24 02:39:20;;;;;;;63.40;48.83;;;;;;;11.13;100.00;101054.00;2072264;28;20074;-73
2022/09/24 02:40:22;;;;;;;71.93;49.03;;;;;;;11.13;100.00;101054.88;2071072;28;39695;-72
2022/09/24 02:41:25;;;;;;;72.28;50.33;;;;;;;11.12;100.00;101042.41;2071045;28;35837;-73
2022/09/24 02:42:28;;;;;;;66.07;48.30;;;;;;;11.13;100.00;101046.84;2062488;28;33459;-72
2022/09/24 02:43:30;;;;;;;65.57;47.65;;;;;;;11.12;100.00;101052.25;2063519;28;33214;-73
2022/09/24 02:44:36;;;;;;;66.72;49.85;;;;;;;11.12;100.00;101050.44;2071866;28;37783;-73
2022/09/24 02:45:38;;;;;;;64.60;47.20;;;;;;;11.13;100.00;101054.00;2073119;28;34963;-73
2022/09/24 02:46:40;;;;;;;66.10;49.00;;;;;;;11.13;100.00;101049.53;2073065;28;20034;-74
2022/09/24 02:47:42;;;;;;;75.22;52.78;;;;;;;11.14;100.00;101051.28;2073245;28;37012;-75
2022/09/24 02:48:44;;;;;;;76.85;51.75;;;;;;;11.14;100.00;101047.72;2072339;28;40659;-73
2022/09/24 02:49:45;;;;;;;66.95;49.33;;;;;;;11.13;100.00;101049.53;2073807;28;20847;-74
2022/09/24 02:50:47;;;;;;;73.25;50.75;;;;;;;11.15;100.00;101046.81;2072790;28;35493;-75
2022/09/24 02:51:49;;;;;;;77.68;53.38;;;;;;;11.15;100.00;101046.81;2072889;28;31455;-73
2022/09/24 02:52:51;;;;;;;76.28;53.65;;;;;;;11.15;100.00;101053.06;2073184;28;24097;-73
2022/09/24 02:53:55;;;;;;;70.80;52.42;;;;;;;11.15;100.00;101047.69;2073498;28;20128;-73
2022/09/24 02:55:00;;;;;;;71.10;50.15;;;;;;;11.15;100.00;101046.81;2073229;28;20176;-73
2022/09/24 02:56:02;;;;;;;68.32;50.63;;;;;;;11.14;100.00;101037.00;2072254;28;35843;-73
2022/09/24 02:57:04;;;;;;;76.47;53.35;;;;;;;11.15;100.00;101045.00;2072595;28;34341;-73
2022/09/24 02:58:06;;;;;;;68.85;48.20;;;;;;;11.17;100.00;101047.66;2073477;28;20029;-73
2022/09/24 02:59:09;;;;;;;77.20;54.95;;;;;;;11.17;100.00;101042.28;2072639;28;39376;-73
2022/09/24 03:00:14;;;;;;;77.20;54.42;;;;;;;11.16;100.00;101037.84;2072890;28;29796;-73
2022/09/24 03:01:16;;;;;;;63.08;47.78;;;;;;;11.16;100.00;101044.09;2072584;28;37663;-73
2022/09/24 03:02:18;;;;;;;76.75;54.45;;;;;;;11.18;100.00;101041.38;2072823;28;35207;-73
2022/09/24 03:03:21;;;;;;;80.10;53.75;;;;;;;11.18;100.00;101041.38;2072585;28;30471;-73
2022/09/24 03:04:24;;;;;;;75.15;52.38;;;;;;;11.18;100.00;101036.00;2064086;28;36429;-73
2022/09/24 03:05:28;;;;;;;74.15;51.78;;;;;;;11.19;100.00;101037.78;2064642;28;31677;-74
2022/09/24 03:06:30;;;;;;;72.25;52.97;;;;;;;11.19;100.00;101037.78;2072809;28;36787;-73
2022/09/24 03:07:31;;;;;;;80.00;54.13;;;;;;;11.19;100.00;101035.09;2072837;28;33813;-74
2022/09/24 03:08:34;;;;;;;79.53;54.70;;;;;;;11.18;100.00;101033.31;2072771;28;35807;-72
2022/09/24 03:09:36;;;;;;;81.90;57.05;;;;;;;11.18;100.00;101027.97;2072654;28;34036;-75
2022/09/24 03:10:38;;;;;;;83.57;57.13;;;;;;;11.17;100.00;101032.44;2073483;28;29331;-75
2022/09/24 03:11:40;;;;;;;81.38;53.42;;;;;;;11.18;100.00;101031.53;2072184;28;36625;-74
2022/09/24 03:12:42;;;;;;;76.07;53.67;;;;;;;11.19;100.00;101035.09;2072828;28;35342;-74
2022/09/24 03:13:44;;;;;;;78.55;54.28;;;;;;;11.18;100.00;101027.97;2072502;28;31147;-74
2022/09/24 03:14:50;;;;;;;88.32;58.72;;;;;;;11.18;100.00;101030.63;2073121;28;20093;-75
2022/09/24 03:15:51;;;;;;;84.28;56.67;;;;;;;11.16;100.00;101028.03;2072471;28;39581;-74
2022/09/24 03:16:53;;;;;;;82.60;54.00;;;;;;;11.16;100.00;101037.84;2072844;28;27446;-75
2022/09/24 03:17:55;;;;;;;87.43;59.58;;;;;;;11.18;100.00;101044.03;2072437;28;32746;-73
2022/09/24 03:18:57;;;;;;;92.32;59.65;;;;;;;11.17;100.00;101029.78;2072820;28;34430;-75
2022/09/24 03:19:58;;;;;;;97.85;61.10;;;;;;;11.17;100.00;101032.44;2071990;28;36627;-74
2022/09/24 03:21:10;;;;;;;93.00;60.25;;;;;;;11.17;100.00;101028.91;2072655;28;34226;-73
2022/09/24 03:22:14;;;;;;;94.20;59.72;;;;;;;11.17;100.00;101039.63;2072627;28;36141;-73
2022/09/24 03:23:15;;;;;;;85.57;56.58;;;;;;;11.17;100.00;101035.13;2072816;28;30507;-75
2022/09/24 03:24:17;;;;;;;106.47;63.58;;;;;;;11.16;100.00;101030.72;2072674;28;28946;-75
2022/09/24 03:25:20;;;;;;;92.85;58.50;;;;;;;11.17;100.00;101034.25;2072055;28;39707;-73
2022/09/24 03:26:22;;;;;;;96.25;58.50;;;;;;;11.17;100.00;101027.09;2072314;28;40160;-73
2022/09/24 03:27:23;;;;;;;96.03;60.55;;;;;;;11.18;100.00;101030.63;2072537;28;32383;-73
2022/09/24 03:28:26;;;;;;;101.38;63.28;;;;;;;11.18;100.00;101028.88;2072264;28;38221;-73
2022/09/24 03:31:00;;;;;;;;;;;;;;;11.21;100.00;101030.56;2072929;28;39263;-72
2022/09/24 03:32:02;;;;;;;100.25;62.70;;;;;;;11.20;100.00;101024.34;2072366;28;32891;-73
2022/09/24 03:33:04;;;;;;;91.30;57.97;;;;;;;11.19;100.00;101022.56;2072590;28;34694;-72
2022/09/24 03:34:05;;;;;;;98.88;60.70;;;;;;;11.19;100.00;101025.25;2072038;28;36801;-73
2022/09/24 03:35:09;;;;;;;92.13;57.78;;;;;;;11.20;100.00;101023.47;2072654;28;34783;-73
2022/09/24 03:36:21;;;;;;;97.80;60.38;;;;;;;11.21;100.00;101033.25;2072885;28;20146;-73
2022/09/24 03:37:23;;;;;;;110.78;65.35;;;;;;;11.21;100.00;101020.72;2063888;28;38196;-73
2022/09/24 03:38:26;;;;;;;98.55;64.38;;;;;;;11.22;100.00;101024.31;2064304;28;38398;-74
2022/09/24 03:39:30;;;;;;;105.30;63.65;;;;;;;11.22;100.00;101021.63;2073046;28;20053;-73
2022/09/24 03:40:31;;;;;;;106.20;65.72;;;;;;;11.22;100.00;101022.50;2072184;28;37640;-73
2022/09/24 03:41:35;;;;;;;107.22;66.30;;;;;;;11.24;100.00;101020.66;2072500;28;38744;-73
2022/09/24 03:42:37;;;;;;;100.65;61.70;;;;;;;11.22;100.00;101017.16;2072147;28;34145;-73
2022/09/24 03:43:39;;;;;;;112.93;68.93;;;;;;;11.23;100.00;101016.25;2073093;28;32451;-73
2022/09/24 03:44:43;;;;;;;106.82;65.28;;;;;;;11.24;100.00;101017.13;2062733;28;39499;-73
2022/09/24 03:45:45;;;;;;;98.80;62.47;;;;;;;11.26;100.00;101012.59;2064447;28;32730;-73
2022/09/24 03:46:49;;;;;;;118.78;68.18;;;;;;;11.26;100.00;101026.00;2072174;28;39703;-73
2022/09/24 03:47:51;;;;;;;110.03;65.72;;;;;;;11.24;100.00;101017.97;2073158;28;20084;-73
2022/09/24 03:48:53;;;;;;;122.43;71.60;;;;;;;11.27;100.00;101019.72;2072402;28;33580;-72
2022/09/24 03:49:54;;;;;;;114.38;67.55;;;;;;;11.26;100.00;101020.63;2072176;28;35156;-72
2022/09/24 03:50:56;;;;;;;126.65;69.78;;;;;;;11.28;100.00;101021.47;2072280;28;30606;-72
2022/09/24 03:51:58;;;;;;;127.85;75.35;;;;;;;11.28;100.00;101016.09;2072666;28;31251;-72
2022/09/24 03:52:59;;;;;;;126.70;71.88;;;;;;;11.27;100.00;101011.69;2071869;28;36432;-73
2022/09/24 03:54:03;;;;;;;117.35;71.57;;;;;;;11.29;100.00;101012.53;2072701;28;29775;-73
2022/09/24 03:55:07;;;;;;;124.68;72.70;;;;;;;11.30;100.00;101014.25;2071758;28;34918;-73
2022/09/24 03:56:11;;;;;;;123.10;71.00;;;;;;;11.30;100.00;101016.94;2072169;28;31246;-73
2022/09/24 03:57:14;;;;;;;123.72;73.45;;;;;;;11.29;100.00;101009.84;2073107;28;20093;-74
2022/09/24 03:58:16;;;;;;;126.18;75.30;;;;;;;11.30;100.00;101014.25;2072305;28;38196;-73
2022/09/24 03:59:17;;;;;;;122.13;68.25;;;;;;;11.29;100.00;101012.53;2063392;28;30943;-73
2022/09/24 04:00:19;;;;;;;118.22;68.60;;;;;;;11.30;100.00;101013.41;2063624;28;32025;-74
2022/09/24 04:01:21;;;;;;;134.77;74.60;;;;;;;11.33;100.00;101014.19;2071636;28;30556;-73
2022/09/24 04:02:22;;;;;;;121.60;71.78;;;;;;;11.32;100.00;101019.59;2072568;28;32361;-74
2022/09/24 04:03:24;;;;;;;131.00;72.03;;;;;;;11.31;100.00;101016.03;2063412;28;37813;-73
2022/09/24 04:04:26;;;;;;;135.30;73.90;;;;;;;11.32;100.00;101017.78;2064323;28;32371;-74
2022/09/24 04:05:29;;;;;;;126.72;69.88;;;;;;;11.31;100.00;101018.72;2072037;28;39793;-73
2022/09/24 04:06:30;;;;;;;128.35;71.82;;;;;;;11.32;100.00;101006.19;2072520;28;34510;-74
2022/09/24 04:07:32;;;;;;;128.27;71.60;;;;;;;11.32;100.00;101006.19;2072294;28;30576;-74
2022/09/24 04:08:36;;;;;;;126.68;68.65;;;;;;;11.32;100.00;101016.91;2072634;28;35057;-74
2022/09/24 04:09:38;;;;;;;134.27;74.50;;;;;;;11.34;100.00;101012.38;2072724;28;20891;-73
2022/09/24 04:10:39;;;;;;;133.80;73.97;;;;;;;11.35;100.00;101004.31;2072689;28;32828;-74
2022/09/24 04:11:42;;;;;;;130.43;71.70;;;;;;;11.35;100.00;101016.84;2071888;28;34563;-74
2022/09/24 04:12:44;;;;;;;137.45;75.68;;;;;;;11.35;100.00;101011.47;2072185;28;36772;-74
2022/09/24 04:13:46;;;;;;;135.70;74.50;;;;;;;11.36;100.00;101013.22;2072094;28;34940;-74
2022/09/24 04:14:48;;;;;;;137.55;75.80;;;;;;;11.37;100.00;101015.00;2063383;28;42168;-74
2022/09/24 04:15:50;;;;;;;132.48;72.35;;;;;;;11.35;100.00;101012.34;2063856;28;29013;-74
2022/09/24 04:16:52;;;;;;;138.50;76.72;;;;;;;11.36;100.00;101014.13;2072160;28;40330;-74
2022/09/24 04:17:58;;;;;;;125.03;71.95;;;;;;;11.35;100.00;101012.34;2072858;28;20546;-74
2022/09/24 04:19:00;;;;;;;140.75;76.05;;;;;;;11.36;100.00;101014.13;2072551;28;35871;-74
2022/09/24 04:20:05;;;;;;;127.07;71.00;;;;;;;11.38;100.00;101012.28;2071125;28;35056;-74
2022/09/24 04:21:08;;;;;;;131.90;72.90;;;;;;;11.37;100.00;101006.97;2072977;28;20041;-74
2022/09/24 04:22:09;;;;;;;131.20;71.97;;;;;;;11.37;100.00;101015.88;2071526;28;41335;-74
2022/09/24 04:23:11;;;;;;;138.00;73.40;;;;;;;11.37;100.00;101013.19;2072482;28;40145;-74
2022/09/24 04:24:13;;;;;;;139.90;75.75;;;;;;;11.37;100.00;101013.19;2072070;28;28798;-74
2022/09/24 04:25:16;;;;;;;137.60;75.13;;;;;;;11.38;100.00;101008.75;2071860;28;40453;-73
2022/09/24 04:26:19;;;;;;;143.27;77.63;;;;;;;11.39;100.00;101008.66;2071863;28;31098;-73
2022/09/24 04:27:24;;;;;;;134.18;74.72;;;;;;;11.37;100.00;101004.28;2072109;28;31583;-73
2022/09/24 04:28:30;;;;;;;141.60;75.85;;;;;;;11.38;100.00;101006.94;2072687;28;20133;-73
2022/09/24 04:29:32;;;;;;;138.88;76.32;;;;;;;11.38;100.00;101006.06;2072823;28;20062;-73
2022/09/24 04:30:34;;;;;;;142.93;76.30;;;;;;;11.38;100.00;101012.28;2071554;28;37506;-73
2022/09/24 04:31:35;;;;;;;126.03;71.70;;;;;;;11.38;100.00;101006.94;2072490;28;33496;-73
2022/09/24 04:32:38;;;;;;;146.00;76.18;;;;;;;11.38;100.00;101003.38;2071996;28;31673;-73
2022/09/24 04:33:40;;;;;;;133.75;73.28;;;;;;;11.40;100.00;101009.56;2072242;28;34687;-73
2022/09/24 04:34:42;;;;;;;140.65;74.10;;;;;;;11.38;100.00;101001.56;2072024;28;31346;-73
2022/09/24 04:35:45;;;;;;;141.45;74.80;;;;;;;11.39;100.00;101002.44;2072980;28;20824;-72
2022/09/24 04:36:46;;;;;;;133.68;72.63;;;;;;;11.39;100.00;101006.00;2071754;28;38127;-73
2022/09/24 04:37:49;;;;;;;139.93;74.88;;;;;;;11.39;100.00;101000.63;2072173;28;30936;-73
2022/09/24 04:38:50;;;;;;;132.50;76.38;;;;;;;11.40;100.00;100993.50;2071511;28;39456;-74
2022/09/24 04:39:52;;;;;;;137.50;72.90;;;;;;;11.39;100.00;101000.63;2072524;28;32358;-73
2022/09/24 04:41:02;;;;;;;139.85;73.38;;;;;;;11.39;100.00;100997.94;2071806;28;35112;-73
2022/09/24 04:42:06;;;;;;;140.65;74.82;;;;;;;11.40;100.00;100996.16;2063041;28;40284;-73
2022/09/24 04:43:10;;;;;;;142.25;75.97;;;;;;;11.40;100.00;100989.00;2063468;28;37744;-73
2022/09/24 04:44:12;;;;;;;138.35;74.68;;;;;;;11.40;100.00;100990.81;2072297;28;34449;-73
2022/09/24 04:45:19;;;;;;;133.23;73.00;;;;;;;11.40;100.00;100994.34;2071837;28;34012;-73
2022/09/24 04:46:20;;;;;;;130.85;72.28;;;;;;;11.40;100.00;100996.16;2072266;28;35144;-73
2022/09/24 04:47:25;;;;;;;141.93;78.65;;;;;;;11.41;100.00;100989.88;2071697;28;39056;-73
2022/09/24 04:48:27;;;;;;;136.18;74.78;;;;;;;11.40;100.00;100991.69;2072252;28;31022;-73
2022/09/24 04:49:29;;;;;;;140.85;78.35;;;;;;;11.40;100.00;100985.44;2071624;28;38843;-73
2022/09/24 04:50:33;;;;;;;137.55;76.32;;;;;;;11.39;100.00;100995.25;2063212;28;34871;-73
2022/09/24 04:51:37;;;;;;;136.00;75.70;;;;;;;11.40;100.00;100989.00;2062842;28;39983;-73
2022/09/24 04:52:39;;;;;;;137.90;75.63;;;;;;;11.38;100.00;100988.16;2071893;28;41712;-73
2022/09/24 04:53:41;;;;;;;144.02;76.50;;;;;;;11.39;100.00;100987.22;2072374;28;24045;-73
2022/09/24 04:54:46;;;;;;;129.40;73.28;;;;;;;11.39;100.00;100992.59;2072004;28;38100;-73
2022/09/24 04:55:49;;;;;;;132.43;74.63;;;;;;;11.39;100.00;100986.34;2071987;28;34885;-73
2022/09/24 04:56:50;;;;;;;139.65;75.38;;;;;;;11.40;100.00;100994.34;2071824;28;37722;-73
2022/09/24 04:57:56;;;;;;;141.60;75.68;;;;;;;11.40;100.00;100991.69;2071787;28;32879;-73
2022/09/24 04:59:00;;;;;;;143.55;76.78;;;;;;;11.40;100.00;100988.13;2072974;28;20074;-74
2022/09/24 05:00:08;;;;;;;133.60;75.28;;;;;;;11.40;100.00;100993.50;2071285;28;37160;-73
2022/09/24 05:01:12;;;;;;;136.30;75.70;;;;;;;11.41;100.00;100989.88;2071815;28;37032;-73